createdAt,value
2023-06-04T00:00:03.228Z,1017.5
2023-06-04T00:15:02.681Z,1017.4
2023-06-04T00:30:03.139Z,1017.4
2023-06-04T00:45:02.633Z,1017.4
2023-06-04T01:00:02.996Z,1017.4
2023-06-04T01:15:02.631Z,1017.4
2023-06-04T01:30:02.904Z,1017.3
2023-06-04T01:45:02.304Z,1017.4
2023-06-04T02:00:02.765Z,1017.3
2023-06-04T02:15:03.218Z,1017.4
2023-06-04T02:30:02.645Z,1017.3
2023-06-04T02:45:03.059Z,1017.4
2023-06-04T03:00:02.643Z,1017.4
2023-06-04T03:15:02.989Z,1017.5
2023-06-04T03:30:02.404Z,1017.4
2023-06-04T03:45:02.841Z,1017.5
2023-06-04T04:00:02.301Z,1017.5
2023-06-04T04:15:02.707Z,1017.5
2023-06-04T04:30:02.207Z,1017.4
2023-06-04T04:45:02.679Z,1017.4
2023-06-04T05:00:03.034Z,1017.4
2023-06-04T05:15:02.669Z,1017.5
2023-06-04T05:30:02.916Z,1017.6
2023-06-04T05:45:02.352Z,1017.5
2023-06-04T06:00:02.800Z,1017.5
2023-06-04T06:15:03.240Z,1017.5
2023-06-04T06:30:02.711Z,1017.7
2023-06-04T06:45:03.137Z,1017.7
2023-06-04T07:00:02.693Z,1017.8
2023-06-04T07:15:03.028Z,1017.8
2023-06-04T07:30:02.471Z,1017.9
2023-06-04T07:45:02.891Z,1018.0
2023-06-04T08:00:02.333Z,1018.0
2023-06-04T08:15:02.774Z,1017.9
2023-06-04T08:30:02.191Z,1018.1
2023-06-04T08:45:02.709Z,1017.8
2023-06-04T09:00:03.053Z,1018.1
2023-06-04T09:15:02.745Z,1018.1
2023-06-04T09:30:01.949Z,1018.1
2023-06-04T09:45:02.421Z,1018.2
2023-06-04T10:00:02.857Z,1018.1
2023-06-04T10:15:02.267Z,1018.0
2023-06-04T10:30:02.722Z,1018.0
2023-06-04T10:45:03.161Z,1018.1
2023-06-04T11:00:02.746Z,1018.0
2023-06-04T11:15:03.036Z,1017.9
2023-06-04T11:30:02.458Z,1017.9
2023-06-04T11:45:02.932Z,1017.7
2023-06-04T12:00:02.378Z,1017.7
2023-06-04T12:15:02.882Z,1017.6
2023-06-04T12:30:02.288Z,1017.5
2023-06-04T12:45:02.771Z,1017.5
2023-06-04T13:00:03.132Z,1017.4
2023-06-04T13:15:02.764Z,1017.4
2023-06-04T13:30:02.031Z,1017.3
2023-06-04T13:45:02.436Z,1017.2
2023-06-04T14:00:02.857Z,1017.0
2023-06-04T14:15:02.298Z,1017.0
2023-06-04T14:30:02.781Z,1017.0
2023-06-04T14:45:03.172Z,1016.9
2023-06-04T15:00:02.793Z,1016.9
2023-06-04T15:15:03.078Z,1016.9
2023-06-04T15:30:02.508Z,1016.7
2023-06-04T15:45:02.940Z,1016.7
2023-06-04T16:00:02.389Z,1016.7
2023-06-04T16:15:02.825Z,1016.5
2023-06-04T16:30:02.240Z,1016.4
2023-06-04T16:45:02.780Z,1016.4
2023-06-04T17:00:17.087Z,1016.4
2023-06-04T17:15:02.801Z,1016.3
2023-06-04T17:30:02.008Z,1016.2
2023-06-04T17:45:02.506Z,1016.3
2023-06-04T18:00:02.939Z,1016.4
2023-06-04T18:15:02.352Z,1016.7
2023-06-04T18:30:02.818Z,1016.7
2023-06-04T18:45:02.239Z,1016.8
2023-06-04T19:00:02.828Z,1016.9
2023-06-04T19:15:03.094Z,1016.9
2023-06-04T19:30:02.591Z,1017.0
2023-06-04T19:45:02.996Z,1017.3
2023-06-04T20:00:02.419Z,1017.4
2023-06-04T20:15:02.858Z,1017.6
2023-06-04T20:30:02.314Z,1017.9
2023-06-04T20:45:02.820Z,1018.0
2023-06-04T21:00:02.191Z,1018.2
2023-06-04T21:15:02.816Z,1018.3
2023-06-04T21:30:02.184Z,1018.3
2023-06-04T21:45:02.526Z,1018.4
2023-06-04T22:15:03.428Z,1018.3
2023-06-04T22:30:02.856Z,1018.3
2023-06-04T22:45:02.304Z,1018.4
2023-06-04T23:00:02.924Z,1018.5
2023-06-04T23:15:02.189Z,1018.5
2023-06-04T23:30:02.911Z,1018.6
2023-06-04T23:45:02.085Z,1018.6
